sensor_id;sensor_type;location;lat;lon;timestamp;P1;durP1;ratioP1;P2;durP2;ratioP2
79338;SDS011;74181;41.704;44.786;2024-02-26T00:00:08;12.13;;;6.28;;
79338;SDS011;74181;41.704;44.786;2024-02-26T00:02:38;13.37;;;5.70;;
79338;SDS011;74181;41.704;44.786;2024-02-26T00:05:06;14.27;;;5.90;;
79338;SDS011;74181;41.704;44.786;2024-02-26T00:07:33;16.13;;;6.88;;
79338;SDS011;74181;41.704;44.786;2024-02-26T00:09:59;13.55;;;5.90;;
79338;SDS011;74181;41.704;44.786;2024-02-26T00:12:25;12.52;;;6.15;;
79338;SDS011;74181;41.704;44.786;2024-02-26T00:14:51;16.50;;;6.47;;
79338;SDS011;74181;41.704;44.786;2024-02-26T00:17:19;14.27;;;5.97;;
79338;SDS011;74181;41.704;44.786;2024-02-26T00:19:45;13.93;;;6.55;;
79338;SDS011;74181;41.704;44.786;2024-02-26T00:22:11;14.57;;;6.53;;
79338;SDS011;74181;41.704;44.786;2024-02-26T00:24:39;16.20;;;6.38;;
79338;SDS011;74181;41.704;44.786;2024-02-26T00:27:05;16.00;;;6.40;;
79338;SDS011;74181;41.704;44.786;2024-02-26T00:29:32;13.90;;;6.70;;
79338;SDS011;74181;41.704;44.786;2024-02-26T00:31:58;16.45;;;6.93;;
79338;SDS011;74181;41.704;44.786;2024-02-26T00:34:24;15.07;;;6.47;;
79338;SDS011;74181;41.704;44.786;2024-02-26T00:36:50;14.75;;;6.32;;
79338;SDS011;74181;41.704;44.786;2024-02-26T00:39:17;15.83;;;6.83;;
79338;SDS011;74181;41.704;44.786;2024-02-26T00:41:43;14.43;;;6.88;;
79338;SDS011;74181;41.704;44.786;2024-02-26T00:44:09;16.80;;;7.13;;
79338;SDS011;74181;41.704;44.786;2024-02-26T00:46:35;16.63;;;6.93;;
79338;SDS011;74181;41.704;44.786;2024-02-26T00:49:01;14.75;;;6.65;;
79338;SDS011;74181;41.704;44.786;2024-02-26T00:51:28;13.77;;;6.23;;
79338;SDS011;74181;41.704;44.786;2024-02-26T00:53:54;16.48;;;6.43;;
79338;SDS011;74181;41.704;44.786;2024-02-26T00:56:21;14.80;;;6.32;;
79338;SDS011;74181;41.704;44.786;2024-02-26T00:58:47;14.52;;;6.20;;
79338;SDS011;74181;41.704;44.786;2024-02-26T01:01:13;16.05;;;6.57;;
79338;SDS011;74181;41.704;44.786;2024-02-26T01:03:39;14.77;;;6.33;;
79338;SDS011;74181;41.704;44.786;2024-02-26T01:06:05;15.60;;;6.20;;
79338;SDS011;74181;41.704;44.786;2024-02-26T01:08:32;13.25;;;6.40;;
79338;SDS011;74181;41.704;44.786;2024-02-26T01:10:58;15.85;;;6.35;;
79338;SDS011;74181;41.704;44.786;2024-02-26T01:13:24;16.75;;;6.75;;
79338;SDS011;74181;41.704;44.786;2024-02-26T01:15:51;15.90;;;6.90;;
79338;SDS011;74181;41.704;44.786;2024-02-26T01:18:17;15.27;;;6.60;;
79338;SDS011;74181;41.704;44.786;2024-02-26T01:20:43;16.58;;;7.13;;
79338;SDS011;74181;41.704;44.786;2024-02-26T01:23:09;16.45;;;6.63;;
79338;SDS011;74181;41.704;44.786;2024-02-26T01:25:35;15.18;;;6.80;;
79338;SDS011;74181;41.704;44.786;2024-02-26T01:28:02;16.07;;;6.70;;
79338;SDS011;74181;41.704;44.786;2024-02-26T01:30:28;15.32;;;6.70;;
79338;SDS011;74181;41.704;44.786;2024-02-26T01:32:55;16.27;;;6.85;;
79338;SDS011;74181;41.704;44.786;2024-02-26T01:35:21;16.30;;;6.95;;
79338;SDS011;74181;41.704;44.786;2024-02-26T01:37:47;15.02;;;6.38;;
79338;SDS011;74181;41.704;44.786;2024-02-26T01:40:13;17.30;;;7.00;;
79338;SDS011;74181;41.704;44.786;2024-02-26T01:42:43;17.90;;;7.50;;
79338;SDS011;74181;41.704;44.786;2024-02-26T01:45:14;16.73;;;6.85;;
79338;SDS011;74181;41.704;44.786;2024-02-26T01:47:47;15.48;;;6.95;;
79338;SDS011;74181;41.704;44.786;2024-02-26T01:50:15;18.77;;;7.43;;
79338;SDS011;74181;41.704;44.786;2024-02-26T01:52:41;16.57;;;6.50;;
79338;SDS011;74181;41.704;44.786;2024-02-26T01:55:07;17.75;;;7.35;;
79338;SDS011;74181;41.704;44.786;2024-02-26T01:57:34;18.02;;;7.28;;
79338;SDS011;74181;41.704;44.786;2024-02-26T02:00:00;15.45;;;6.88;;
79338;SDS011;74181;41.704;44.786;2024-02-26T02:02:31;15.85;;;6.65;;
79338;SDS011;74181;41.704;44.786;2024-02-26T02:04:57;17.03;;;7.03;;
79338;SDS011;74181;41.704;44.786;2024-02-26T02:07:23;15.75;;;6.95;;
79338;SDS011;74181;41.704;44.786;2024-02-26T02:09:50;15.57;;;6.72;;
79338;SDS011;74181;41.704;44.786;2024-02-26T02:12:16;17.55;;;7.53;;
79338;SDS011;74181;41.704;44.786;2024-02-26T02:14:42;15.65;;;6.70;;
79338;SDS011;74181;41.704;44.786;2024-02-26T02:17:09;13.90;;;6.40;;
79338;SDS011;74181;41.704;44.786;2024-02-26T02:19:35;17.13;;;7.35;;
79338;SDS011;74181;41.704;44.786;2024-02-26T02:22:02;16.38;;;6.93;;
79338;SDS011;74181;41.704;44.786;2024-02-26T02:24:28;16.83;;;7.13;;
79338;SDS011;74181;41.704;44.786;2024-02-26T02:26:54;16.58;;;7.05;;
79338;SDS011;74181;41.704;44.786;2024-02-26T02:29:21;17.63;;;7.03;;
79338;SDS011;74181;41.704;44.786;2024-02-26T02:31:47;16.27;;;7.30;;
79338;SDS011;74181;41.704;44.786;2024-02-26T02:34:13;17.60;;;7.15;;
79338;SDS011;74181;41.704;44.786;2024-02-26T02:36:51;14.25;;;6.68;;
79338;SDS011;74181;41.704;44.786;2024-02-26T02:39:18;17.60;;;7.93;;
79338;SDS011;74181;41.704;44.786;2024-02-26T02:41:44;18.00;;;7.37;;
79338;SDS011;74181;41.704;44.786;2024-02-26T02:44:10;16.23;;;7.10;;
79338;SDS011;74181;41.704;44.786;2024-02-26T02:46:37;17.20;;;7.65;;
79338;SDS011;74181;41.704;44.786;2024-02-26T02:49:04;18.25;;;7.28;;
79338;SDS011;74181;41.704;44.786;2024-02-26T02:51:30;16.08;;;7.30;;
79338;SDS011;74181;41.704;44.786;2024-02-26T02:53:56;16.87;;;6.80;;
79338;SDS011;74181;41.704;44.786;2024-02-26T02:56:22;17.02;;;7.32;;
79338;SDS011;74181;41.704;44.786;2024-02-26T02:58:48;18.13;;;7.47;;
79338;SDS011;74181;41.704;44.786;2024-02-26T03:01:14;18.20;;;7.72;;
79338;SDS011;74181;41.704;44.786;2024-02-26T03:03:40;14.93;;;7.03;;
79338;SDS011;74181;41.704;44.786;2024-02-26T03:06:07;16.57;;;7.17;;
79338;SDS011;74181;41.704;44.786;2024-02-26T03:08:33;16.98;;;7.13;;
79338;SDS011;74181;41.704;44.786;2024-02-26T03:11:03;16.58;;;7.10;;
79338;SDS011;74181;41.704;44.786;2024-02-26T03:13:30;18.80;;;7.57;;
79338;SDS011;74181;41.704;44.786;2024-02-26T03:15:56;17.27;;;7.90;;
79338;SDS011;74181;41.704;44.786;2024-02-26T03:18:22;16.43;;;7.50;;
79338;SDS011;74181;41.704;44.786;2024-02-26T03:20:49;16.75;;;7.40;;
79338;SDS011;74181;41.704;44.786;2024-02-26T03:23:15;18.55;;;7.68;;
79338;SDS011;74181;41.704;44.786;2024-02-26T03:25:44;17.60;;;7.43;;
79338;SDS011;74181;41.704;44.786;2024-02-26T03:28:12;17.35;;;7.43;;
79338;SDS011;74181;41.704;44.786;2024-02-26T03:30:38;17.83;;;7.03;;
79338;SDS011;74181;41.704;44.786;2024-02-26T03:33:04;16.17;;;7.30;;
79338;SDS011;74181;41.704;44.786;2024-02-26T03:35:30;20.80;;;7.80;;
79338;SDS011;74181;41.704;44.786;2024-02-26T03:37:56;16.15;;;7.25;;
79338;SDS011;74181;41.704;44.786;2024-02-26T03:40:22;17.35;;;7.35;;
79338;SDS011;74181;41.704;44.786;2024-02-26T03:42:49;17.57;;;7.37;;
79338;SDS011;74181;41.704;44.786;2024-02-26T03:45:18;21.50;;;7.60;;
79338;SDS011;74181;41.704;44.786;2024-02-26T03:47:44;17.05;;;8.00;;
79338;SDS011;74181;41.704;44.786;2024-02-26T03:50:10;17.88;;;7.70;;
79338;SDS011;74181;41.704;44.786;2024-02-26T03:52:36;17.08;;;7.70;;
79338;SDS011;74181;41.704;44.786;2024-02-26T03:55:02;19.93;;;7.80;;
79338;SDS011;74181;41.704;44.786;2024-02-26T03:57:29;18.58;;;7.68;;
79338;SDS011;74181;41.704;44.786;2024-02-26T03:59:56;17.95;;;7.88;;
79338;SDS011;74181;41.704;44.786;2024-02-26T04:02:22;15.93;;;7.25;;
79338;SDS011;74181;41.704;44.786;2024-02-26T04:04:49;19.02;;;7.78;;
79338;SDS011;74181;41.704;44.786;2024-02-26T04:07:15;17.03;;;7.53;;
79338;SDS011;74181;41.704;44.786;2024-02-26T04:09:42;20.33;;;8.15;;
79338;SDS011;74181;41.704;44.786;2024-02-26T04:12:08;17.00;;;7.53;;
79338;SDS011;74181;41.704;44.786;2024-02-26T04:14:35;16.95;;;7.40;;
79338;SDS011;74181;41.704;44.786;2024-02-26T04:17:02;16.27;;;7.78;;
79338;SDS011;74181;41.704;44.786;2024-02-26T04:19:28;17.30;;;7.30;;
79338;SDS011;74181;41.704;44.786;2024-02-26T04:21:55;18.90;;;7.75;;
79338;SDS011;74181;41.704;44.786;2024-02-26T04:24:21;20.75;;;7.35;;
79338;SDS011;74181;41.704;44.786;2024-02-26T04:26:47;17.95;;;8.05;;
79338;SDS011;74181;41.704;44.786;2024-02-26T04:29:15;21.10;;;7.80;;
79338;SDS011;74181;41.704;44.786;2024-02-26T04:31:41;15.43;;;6.93;;
79338;SDS011;74181;41.704;44.786;2024-02-26T04:34:08;17.65;;;7.53;;
79338;SDS011;74181;41.704;44.786;2024-02-26T04:36:34;18.55;;;7.95;;
79338;SDS011;74181;41.704;44.786;2024-02-26T04:39:00;16.17;;;7.10;;
79338;SDS011;74181;41.704;44.786;2024-02-26T04:41:26;17.02;;;7.40;;
79338;SDS011;74181;41.704;44.786;2024-02-26T04:43:53;18.63;;;7.77;;
79338;SDS011;74181;41.704;44.786;2024-02-26T04:46:19;17.30;;;7.97;;
79338;SDS011;74181;41.704;44.786;2024-02-26T04:48:47;17.10;;;7.80;;
79338;SDS011;74181;41.704;44.786;2024-02-26T04:51:13;17.92;;;7.93;;
79338;SDS011;74181;41.704;44.786;2024-02-26T04:53:39;17.08;;;7.43;;
79338;SDS011;74181;41.704;44.786;2024-02-26T04:56:06;14.70;;;6.80;;
79338;SDS011;74181;41.704;44.786;2024-02-26T04:58:32;16.42;;;6.90;;
79338;SDS011;74181;41.704;44.786;2024-02-26T05:00:58;13.77;;;6.30;;
79338;SDS011;74181;41.704;44.786;2024-02-26T05:03:24;16.98;;;6.68;;
79338;SDS011;74181;41.704;44.786;2024-02-26T05:05:51;14.40;;;6.82;;
79338;SDS011;74181;41.704;44.786;2024-02-26T05:08:17;17.13;;;7.43;;
79338;SDS011;74181;41.704;44.786;2024-02-26T05:10:44;15.85;;;7.30;;
79338;SDS011;74181;41.704;44.786;2024-02-26T05:13:11;16.00;;;6.63;;
79338;SDS011;74181;41.704;44.786;2024-02-26T05:15:37;17.23;;;6.60;;
79338;SDS011;74181;41.704;44.786;2024-02-26T05:18:03;17.23;;;7.05;;
79338;SDS011;74181;41.704;44.786;2024-02-26T05:20:30;14.77;;;6.97;;
79338;SDS011;74181;41.704;44.786;2024-02-26T05:22:56;16.02;;;7.15;;
79338;SDS011;74181;41.704;44.786;2024-02-26T05:25:24;15.25;;;6.50;;
79338;SDS011;74181;41.704;44.786;2024-02-26T05:27:50;16.08;;;8.07;;
79338;SDS011;74181;41.704;44.786;2024-02-26T05:30:16;14.93;;;7.18;;
79338;SDS011;74181;41.704;44.786;2024-02-26T05:32:43;14.70;;;6.53;;
79338;SDS011;74181;41.704;44.786;2024-02-26T05:35:09;15.82;;;6.50;;
79338;SDS011;74181;41.704;44.786;2024-02-26T05:37:35;14.63;;;6.50;;
79338;SDS011;74181;41.704;44.786;2024-02-26T05:40:01;16.98;;;6.43;;
79338;SDS011;74181;41.704;44.786;2024-02-26T05:42:30;15.57;;;6.25;;
79338;SDS011;74181;41.704;44.786;2024-02-26T05:44:56;14.67;;;6.47;;
79338;SDS011;74181;41.704;44.786;2024-02-26T05:47:22;16.02;;;6.22;;
79338;SDS011;74181;41.704;44.786;2024-02-26T05:49:48;14.10;;;6.75;;
79338;SDS011;74181;41.704;44.786;2024-02-26T05:52:14;14.93;;;6.68;;
79338;SDS011;74181;41.704;44.786;2024-02-26T05:54:41;16.90;;;6.68;;
79338;SDS011;74181;41.704;44.786;2024-02-26T05:57:07;15.03;;;6.23;;
79338;SDS011;74181;41.704;44.786;2024-02-26T05:59:33;15.98;;;6.38;;
79338;SDS011;74181;41.704;44.786;2024-02-26T06:01:59;15.25;;;6.90;;
79338;SDS011;74181;41.704;44.786;2024-02-26T06:04:25;14.52;;;6.15;;
79338;SDS011;74181;41.704;44.786;2024-02-26T06:06:51;13.85;;;6.10;;
79338;SDS011;74181;41.704;44.786;2024-02-26T06:09:17;13.10;;;5.50;;
79338;SDS011;74181;41.704;44.786;2024-02-26T06:11:44;12.25;;;5.60;;
79338;SDS011;74181;41.704;44.786;2024-02-26T06:14:10;14.25;;;6.10;;
79338;SDS011;74181;41.704;44.786;2024-02-26T06:16:38;13.75;;;6.07;;
79338;SDS011;74181;41.704;44.786;2024-02-26T06:19:05;14.77;;;5.90;;
79338;SDS011;74181;41.704;44.786;2024-02-26T06:21:31;13.77;;;5.63;;
79338;SDS011;74181;41.704;44.786;2024-02-26T06:23:57;13.85;;;5.60;;
79338;SDS011;74181;41.704;44.786;2024-02-26T06:26:23;11.27;;;5.65;;
79338;SDS011;74181;41.704;44.786;2024-02-26T06:28:50;13.18;;;5.80;;
79338;SDS011;74181;41.704;44.786;2024-02-26T06:31:18;13.60;;;5.63;;
79338;SDS011;74181;41.704;44.786;2024-02-26T06:33:44;13.50;;;5.43;;
79338;SDS011;74181;41.704;44.786;2024-02-26T06:36:10;17.73;;;7.18;;
79338;SDS011;74181;41.704;44.786;2024-02-26T06:38:37;13.40;;;5.55;;
79338;SDS011;74181;41.704;44.786;2024-02-26T06:41:03;12.55;;;5.90;;
79338;SDS011;74181;41.704;44.786;2024-02-26T06:43:29;13.05;;;5.90;;
79338;SDS011;74181;41.704;44.786;2024-02-26T06:45:56;12.60;;;5.83;;
79338;SDS011;74181;41.704;44.786;2024-02-26T06:48:23;14.52;;;6.00;;
79338;SDS011;74181;41.704;44.786;2024-02-26T06:50:50;12.38;;;5.85;;
79338;SDS011;74181;41.704;44.786;2024-02-26T06:53:16;13.10;;;5.45;;
79338;SDS011;74181;41.704;44.786;2024-02-26T06:55:43;13.23;;;6.68;;
79338;SDS011;74181;41.704;44.786;2024-02-26T06:58:09;12.23;;;5.60;;
79338;SDS011;74181;41.704;44.786;2024-02-26T07:00:38;12.07;;;5.60;;
79338;SDS011;74181;41.704;44.786;2024-02-26T07:03:04;11.77;;;5.75;;
79338;SDS011;74181;41.704;44.786;2024-02-26T07:05:30;13.57;;;5.57;;
79338;SDS011;74181;41.704;44.786;2024-02-26T07:07:57;13.35;;;5.63;;
79338;SDS011;74181;41.704;44.786;2024-02-26T07:10:23;13.33;;;5.60;;
79338;SDS011;74181;41.704;44.786;2024-02-26T07:12:49;14.77;;;5.43;;
79338;SDS011;74181;41.704;44.786;2024-02-26T07:15:15;13.10;;;5.40;;
79338;SDS011;74181;41.704;44.786;2024-02-26T07:17:41;15.05;;;5.72;;
79338;SDS011;74181;41.704;44.786;2024-02-26T07:20:12;14.60;;;5.68;;
79338;SDS011;74181;41.704;44.786;2024-02-26T07:22:40;14.57;;;5.70;;
79338;SDS011;74181;41.704;44.786;2024-02-26T07:25:08;13.38;;;5.30;;
79338;SDS011;74181;41.704;44.786;2024-02-26T07:27:37;12.48;;;5.78;;
79338;SDS011;74181;41.704;44.786;2024-02-26T07:30:03;11.45;;;5.35;;
79338;SDS011;74181;41.704;44.786;2024-02-26T07:32:30;13.05;;;6.07;;
79338;SDS011;74181;41.704;44.786;2024-02-26T07:34:56;12.93;;;5.67;;
79338;SDS011;74181;41.704;44.786;2024-02-26T07:37:22;14.93;;;5.80;;
79338;SDS011;74181;41.704;44.786;2024-02-26T07:39:49;16.75;;;7.72;;
79338;SDS011;74181;41.704;44.786;2024-02-26T07:42:15;13.85;;;6.13;;
79338;SDS011;74181;41.704;44.786;2024-02-26T07:44:41;15.38;;;6.65;;
79338;SDS011;74181;41.704;44.786;2024-02-26T07:47:09;12.27;;;5.80;;
79338;SDS011;74181;41.704;44.786;2024-02-26T07:49:35;14.05;;;5.45;;
79338;SDS011;74181;41.704;44.786;2024-02-26T07:52:01;13.82;;;5.75;;
79338;SDS011;74181;41.704;44.786;2024-02-26T07:54:28;11.38;;;4.93;;
79338;SDS011;74181;41.704;44.786;2024-02-26T07:57:04;13.77;;;5.32;;
79338;SDS011;74181;41.704;44.786;2024-02-26T07:59:31;12.43;;;5.03;;
79338;SDS011;74181;41.704;44.786;2024-02-26T08:01:58;11.23;;;5.03;;
79338;SDS011;74181;41.704;44.786;2024-02-26T08:04:24;11.27;;;5.10;;
79338;SDS011;74181;41.704;44.786;2024-02-26T08:06:52;12.50;;;4.68;;
79338;SDS011;74181;41.704;44.786;2024-02-26T08:09:18;10.88;;;4.50;;
79338;SDS011;74181;41.704;44.786;2024-02-26T08:11:44;11.60;;;4.50;;
79338;SDS011;74181;41.704;44.786;2024-02-26T08:14:11;12.75;;;5.20;;
79338;SDS011;74181;41.704;44.786;2024-02-26T08:16:37;11.73;;;5.20;;
79338;SDS011;74181;41.704;44.786;2024-02-26T08:19:09;14.88;;;5.50;;
79338;SDS011;74181;41.704;44.786;2024-02-26T08:21:41;12.70;;;5.43;;
79338;SDS011;74181;41.704;44.786;2024-02-26T08:24:13;11.63;;;5.50;;
79338;SDS011;74181;41.704;44.786;2024-02-26T08:26:39;11.93;;;5.30;;
79338;SDS011;74181;41.704;44.786;2024-02-26T08:29:05;10.10;;;4.57;;
79338;SDS011;74181;41.704;44.786;2024-02-26T08:31:32;9.10;;;4.35;;
79338;SDS011;74181;41.704;44.786;2024-02-26T08:33:58;11.15;;;4.50;;
79338;SDS011;74181;41.704;44.786;2024-02-26T08:39:24;9.80;;;4.78;;
79338;SDS011;74181;41.704;44.786;2024-02-26T08:41:52;12.25;;;4.75;;
79338;SDS011;74181;41.704;44.786;2024-02-26T08:44:18;10.48;;;5.07;;
79338;SDS011;74181;41.704;44.786;2024-02-26T08:46:55;11.48;;;5.10;;
79338;SDS011;74181;41.704;44.786;2024-02-26T08:49:21;11.30;;;5.07;;
79338;SDS011;74181;41.704;44.786;2024-02-26T08:51:49;10.27;;;4.97;;
79338;SDS011;74181;41.704;44.786;2024-02-26T08:54:15;13.10;;;5.57;;
79338;SDS011;74181;41.704;44.786;2024-02-26T08:56:47;12.30;;;4.97;;
79338;SDS011;74181;41.704;44.786;2024-02-26T08:59:14;11.35;;;5.88;;
79338;SDS011;74181;41.704;44.786;2024-02-26T09:01:42;12.57;;;5.10;;
79338;SDS011;74181;41.704;44.786;2024-02-26T09:04:08;11.93;;;5.20;;
79338;SDS011;74181;41.704;44.786;2024-02-26T09:06:35;11.63;;;5.00;;
79338;SDS011;74181;41.704;44.786;2024-02-26T09:09:01;11.75;;;5.25;;
79338;SDS011;74181;41.704;44.786;2024-02-26T09:11:29;14.10;;;5.68;;
79338;SDS011;74181;41.704;44.786;2024-02-26T09:13:56;12.33;;;5.10;;
79338;SDS011;74181;41.704;44.786;2024-02-26T09:16:22;11.20;;;4.90;;
79338;SDS011;74181;41.704;44.786;2024-02-26T09:18:49;12.20;;;5.28;;
79338;SDS011;74181;41.704;44.786;2024-02-26T09:21:15;11.57;;;5.60;;
79338;SDS011;74181;41.704;44.786;2024-02-26T09:23:44;12.65;;;5.30;;
79338;SDS011;74181;41.704;44.786;2024-02-26T09:26:10;12.50;;;5.70;;
79338;SDS011;74181;41.704;44.786;2024-02-26T09:28:36;11.02;;;4.85;;
79338;SDS011;74181;41.704;44.786;2024-02-26T09:31:11;14.02;;;5.38;;
79338;SDS011;74181;41.704;44.786;2024-02-26T09:33:38;10.60;;;4.70;;
79338;SDS011;74181;41.704;44.786;2024-02-26T09:36:04;12.48;;;5.10;;
79338;SDS011;74181;41.704;44.786;2024-02-26T09:38:31;12.93;;;5.53;;
79338;SDS011;74181;41.704;44.786;2024-02-26T09:41:14;15.45;;;6.22;;
79338;SDS011;74181;41.704;44.786;2024-02-26T09:43:43;11.75;;;5.63;;
79338;SDS011;74181;41.704;44.786;2024-02-26T09:46:13;11.27;;;5.07;;
79338;SDS011;74181;41.704;44.786;2024-02-26T09:48:42;12.93;;;5.60;;
79338;SDS011;74181;41.704;44.786;2024-02-26T09:51:08;13.87;;;5.37;;
79338;SDS011;74181;41.704;44.786;2024-02-26T09:53:38;11.50;;;4.97;;
79338;SDS011;74181;41.704;44.786;2024-02-26T09:56:12;11.48;;;5.22;;
79338;SDS011;74181;41.704;44.786;2024-02-26T09:58:39;12.32;;;4.82;;
79338;SDS011;74181;41.704;44.786;2024-02-26T10:01:11;10.63;;;4.90;;
79338;SDS011;74181;41.704;44.786;2024-02-26T10:03:42;13.33;;;4.90;;
79338;SDS011;74181;41.704;44.786;2024-02-26T10:06:10;11.80;;;5.45;;
79338;SDS011;74181;41.704;44.786;2024-02-26T10:08:37;13.85;;;5.45;;
79338;SDS011;74181;41.704;44.786;2024-02-26T10:11:04;13.35;;;5.40;;
79338;SDS011;74181;41.704;44.786;2024-02-26T10:13:32;9.50;;;4.78;;
79338;SDS011;74181;41.704;44.786;2024-02-26T10:16:00;11.27;;;4.10;;
79338;SDS011;74181;41.704;44.786;2024-02-26T10:18:45;10.15;;;4.55;;
79338;SDS011;74181;41.704;44.786;2024-02-26T10:21:18;12.23;;;5.00;;
79338;SDS011;74181;41.704;44.786;2024-02-26T10:23:45;10.70;;;4.80;;
79338;SDS011;74181;41.704;44.786;2024-02-26T10:26:11;9.90;;;4.80;;
79338;SDS011;74181;41.704;44.786;2024-02-26T10:28:39;11.87;;;5.60;;
79338;SDS011;74181;41.704;44.786;2024-02-26T10:31:06;15.18;;;6.78;;
79338;SDS011;74181;41.704;44.786;2024-02-26T10:33:35;14.77;;;6.75;;
79338;SDS011;74181;41.704;44.786;2024-02-26T10:36:03;15.45;;;6.57;;
79338;SDS011;74181;41.704;44.786;2024-02-26T10:38:34;16.83;;;7.03;;
79338;SDS011;74181;41.704;44.786;2024-02-26T10:41:02;16.93;;;6.60;;
79338;SDS011;74181;41.704;44.786;2024-02-26T10:43:32;13.95;;;6.70;;
79338;SDS011;74181;41.704;44.786;2024-02-26T10:45:58;16.90;;;7.65;;
79338;SDS011;74181;41.704;44.786;2024-02-26T10:48:24;17.23;;;6.95;;
79338;SDS011;74181;41.704;44.786;2024-02-26T10:50:51;19.73;;;6.97;;
79338;SDS011;74181;41.704;44.786;2024-02-26T10:53:22;13.43;;;5.80;;
79338;SDS011;74181;41.704;44.786;2024-02-26T10:55:52;18.17;;;7.03;;
79338;SDS011;74181;41.704;44.786;2024-02-26T10:58:21;17.20;;;7.18;;
79338;SDS011;74181;41.704;44.786;2024-02-26T11:00:50;13.75;;;6.32;;
79338;SDS011;74181;41.704;44.786;2024-02-26T11:03:17;16.20;;;6.80;;
79338;SDS011;74181;41.704;44.786;2024-02-26T11:05:49;14.43;;;6.13;;
79338;SDS011;74181;41.704;44.786;2024-02-26T11:08:18;14.25;;;6.05;;
79338;SDS011;74181;41.704;44.786;2024-02-26T11:10:47;11.95;;;5.65;;
79338;SDS011;74181;41.704;44.786;2024-02-26T11:13:14;12.30;;;5.47;;
79338;SDS011;74181;41.704;44.786;2024-02-26T11:15:42;10.95;;;5.70;;
79338;SDS011;74181;41.704;44.786;2024-02-26T11:18:09;12.37;;;5.40;;
79338;SDS011;74181;41.704;44.786;2024-02-26T11:20:38;17.13;;;5.72;;
79338;SDS011;74181;41.704;44.786;2024-02-26T11:23:05;13.13;;;5.60;;
79338;SDS011;74181;41.704;44.786;2024-02-26T11:25:32;15.07;;;5.80;;
79338;SDS011;74181;41.704;44.786;2024-02-26T11:28:01;10.75;;;4.75;;
79338;SDS011;74181;41.704;44.786;2024-02-26T11:30:31;12.17;;;5.30;;
79338;SDS011;74181;41.704;44.786;2024-02-26T11:32:59;13.52;;;5.60;;
79338;SDS011;74181;41.704;44.786;2024-02-26T11:35:25;13.80;;;5.85;;
79338;SDS011;74181;41.704;44.786;2024-02-26T11:37:54;11.70;;;5.38;;
79338;SDS011;74181;41.704;44.786;2024-02-26T11:40:23;10.70;;;5.07;;
79338;SDS011;74181;41.704;44.786;2024-02-26T11:42:50;11.70;;;5.40;;
79338;SDS011;74181;41.704;44.786;2024-02-26T11:48:12;14.27;;;5.95;;
79338;SDS011;74181;41.704;44.786;2024-02-26T11:50:39;10.60;;;4.80;;
79338;SDS011;74181;41.704;44.786;2024-02-26T11:53:28;9.68;;;4.35;;
79338;SDS011;74181;41.704;44.786;2024-02-26T12:04:05;9.40;;;4.43;;
79338;SDS011;74181;41.704;44.786;2024-02-26T12:06:51;11.60;;;4.57;;
79338;SDS011;74181;41.704;44.786;2024-02-26T12:09:37;13.23;;;5.87;;
79338;SDS011;74181;41.704;44.786;2024-02-26T12:12:08;10.18;;;4.70;;
79338;SDS011;74181;41.704;44.786;2024-02-26T12:14:39;11.07;;;4.93;;
79338;SDS011;74181;41.704;44.786;2024-02-26T12:17:07;11.77;;;5.20;;
79338;SDS011;74181;41.704;44.786;2024-02-26T12:19:35;12.07;;;5.93;;
79338;SDS011;74181;41.704;44.786;2024-02-26T12:22:02;13.53;;;5.83;;
79338;SDS011;74181;41.704;44.786;2024-02-26T12:24:28;11.48;;;5.18;;
79338;SDS011;74181;41.704;44.786;2024-02-26T12:26:54;12.93;;;5.13;;
79338;SDS011;74181;41.704;44.786;2024-02-26T12:29:21;9.50;;;4.90;;
79338;SDS011;74181;41.704;44.786;2024-02-26T12:31:47;11.57;;;5.18;;
79338;SDS011;74181;41.704;44.786;2024-02-26T12:34:14;12.37;;;5.10;;
79338;SDS011;74181;41.704;44.786;2024-02-26T12:36:41;11.50;;;5.20;;
79338;SDS011;74181;41.704;44.786;2024-02-26T12:39:07;8.63;;;3.72;;
79338;SDS011;74181;41.704;44.786;2024-02-26T12:41:35;8.55;;;3.85;;
79338;SDS011;74181;41.704;44.786;2024-02-26T12:44:01;10.02;;;4.38;;
79338;SDS011;74181;41.704;44.786;2024-02-26T12:46:28;9.03;;;3.90;;
79338;SDS011;74181;41.704;44.786;2024-02-26T12:48:58;9.57;;;3.97;;
79338;SDS011;74181;41.704;44.786;2024-02-26T12:51:25;8.30;;;3.88;;
79338;SDS011;74181;41.704;44.786;2024-02-26T12:53:53;7.47;;;3.63;;
79338;SDS011;74181;41.704;44.786;2024-02-26T12:56:20;8.52;;;4.18;;
79338;SDS011;74181;41.704;44.786;2024-02-26T12:58:47;10.70;;;4.60;;
79338;SDS011;74181;41.704;44.786;2024-02-26T13:01:14;9.15;;;4.20;;
79338;SDS011;74181;41.704;44.786;2024-02-26T13:03:42;10.65;;;4.05;;
79338;SDS011;74181;41.704;44.786;2024-02-26T13:06:09;10.85;;;4.50;;
79338;SDS011;74181;41.704;44.786;2024-02-26T13:08:35;7.53;;;3.72;;
79338;SDS011;74181;41.704;44.786;2024-02-26T13:11:02;8.37;;;3.53;;
79338;SDS011;74181;41.704;44.786;2024-02-26T13:13:28;8.60;;;3.88;;
79338;SDS011;74181;41.704;44.786;2024-02-26T13:16:05;8.60;;;3.80;;
79338;SDS011;74181;41.704;44.786;2024-02-26T13:18:34;9.73;;;3.80;;
79338;SDS011;74181;41.704;44.786;2024-02-26T13:21:13;8.40;;;3.67;;
79338;SDS011;74181;41.704;44.786;2024-02-26T13:23:41;8.90;;;3.60;;
79338;SDS011;74181;41.704;44.786;2024-02-26T13:26:08;10.68;;;3.95;;
79338;SDS011;74181;41.704;44.786;2024-02-26T13:28:34;8.77;;;4.03;;
79338;SDS011;74181;41.704;44.786;2024-02-26T13:31:01;7.63;;;3.72;;
79338;SDS011;74181;41.704;44.786;2024-02-26T13:33:29;9.02;;;3.85;;
79338;SDS011;74181;41.704;44.786;2024-02-26T13:35:55;8.57;;;3.77;;
79338;SDS011;74181;41.704;44.786;2024-02-26T13:38:22;8.95;;;3.83;;
79338;SDS011;74181;41.704;44.786;2024-02-26T13:40:50;8.65;;;3.85;;
79338;SDS011;74181;41.704;44.786;2024-02-26T13:43:26;9.45;;;3.90;;
79338;SDS011;74181;41.704;44.786;2024-02-26T13:45:53;10.90;;;4.20;;
79338;SDS011;74181;41.704;44.786;2024-02-26T13:48:19;9.40;;;4.00;;
79338;SDS011;74181;41.704;44.786;2024-02-26T13:50:45;8.02;;;3.60;;
79338;SDS011;74181;41.704;44.786;2024-02-26T13:53:12;11.85;;;3.58;;
79338;SDS011;74181;41.704;44.786;2024-02-26T13:55:39;8.75;;;4.22;;
79338;SDS011;74181;41.704;44.786;2024-02-26T13:58:08;9.77;;;3.97;;
79338;SDS011;74181;41.704;44.786;2024-02-26T14:00:34;9.03;;;4.10;;
79338;SDS011;74181;41.704;44.786;2024-02-26T14:03:01;9.05;;;4.05;;
79338;SDS011;74181;41.704;44.786;2024-02-26T14:05:27;9.55;;;4.15;;
79338;SDS011;74181;41.704;44.786;2024-02-26T14:07:53;12.07;;;4.07;;
79338;SDS011;74181;41.704;44.786;2024-02-26T14:10:20;9.60;;;4.47;;
79338;SDS011;74181;41.704;44.786;2024-02-26T14:12:46;9.77;;;3.87;;
79338;SDS011;74181;41.704;44.786;2024-02-26T14:15:13;8.40;;;3.50;;
79338;SDS011;74181;41.704;44.786;2024-02-26T14:17:39;9.52;;;3.85;;
79338;SDS011;74181;41.704;44.786;2024-02-26T14:20:05;8.38;;;3.50;;
79338;SDS011;74181;41.704;44.786;2024-02-26T14:22:33;8.30;;;4.00;;
79338;SDS011;74181;41.704;44.786;2024-02-26T14:24:59;7.00;;;3.47;;
79338;SDS011;74181;41.704;44.786;2024-02-26T14:27:25;8.52;;;3.92;;
79338;SDS011;74181;41.704;44.786;2024-02-26T14:29:52;7.75;;;3.60;;
79338;SDS011;74181;41.704;44.786;2024-02-26T14:32:18;9.43;;;3.50;;
79338;SDS011;74181;41.704;44.786;2024-02-26T14:34:45;9.05;;;4.13;;
79338;SDS011;74181;41.704;44.786;2024-02-26T14:37:12;9.13;;;3.70;;